Time;durP1;ratioP1;P1;durP2;ratioP2;P2;SDS_P1;SDS_P2;PMS_P1;PMS_P2;Temp;Humidity;BMP_temperature;BMP_pressure;BME280_temperature;BME280_humidity;BME280_pressure;Samples;Min_cycle;Max_cycle;Signal;HPM_P1;HPM_P2
2021/01/07 00:01:59;;;;;;;162.52;68.63;;;0.90;99.90;;;;;;4974359;28;20030;-77
2021/01/07 00:04:24;;;;;;;157.02;68.93;;;0.90;99.90;;;;;;4974362;28;20022;-77
2021/01/07 00:06:50;;;;;;;177.52;69.93;;;0.90;99.90;;;;;;4975522;28;20037;-77
2021/01/07 00:09:15;;;;;;;158.82;69.07;;;1.00;99.90;;;;;;4975221;28;20097;-77
2021/01/07 00:11:42;;;;;;;175.80;69.50;;;1.00;99.90;;;;;;4975493;28;20058;-77
2021/01/07 00:14:09;;;;;;;163.32;68.88;;;1.00;99.90;;;;;;4974572;28;20030;-77
2021/01/07 00:16:35;;;;;;;159.68;66.85;;;1.00;99.90;;;;;;4990275;28;20023;-78
2021/01/07 00:19:02;;;;;;;172.90;71.88;;;1.00;99.90;;;;;;4974012;28;20058;-77
2021/01/07 00:21:27;;;;;;;160.32;63.33;;;1.00;99.90;;;;;;4974074;28;20025;-77
2021/01/07 00:23:53;;;;;;;163.23;69.40;;;1.00;99.90;;;;;;4974918;28;20113;-77
2021/01/07 00:26:19;;;;;;;150.68;65.03;;;1.00;99.90;;;;;;4975017;28;20114;-77
2021/01/07 00:28:44;;;;;;;164.00;69.28;;;1.00;99.90;;;;;;4973841;28;20033;-77
2021/01/07 00:31:10;;;;;;;154.73;67.18;;;0.90;99.90;;;;;;4989983;28;20023;-77
2021/01/07 00:33:36;;;;;;;176.63;71.75;;;1.00;99.90;;;;;;4973816;28;20082;-77
2021/01/07 00:36:01;;;;;;;158.95;67.47;;;1.00;99.90;;;;;;4973790;28;20042;-77
2021/01/07 00:38:27;;;;;;;152.32;68.22;;;1.00;99.90;;;;;;4973721;28;20034;-77
2021/01/07 00:40:52;;;;;;;163.65;69.30;;;1.00;99.90;;;;;;4974881;28;20029;-77
2021/01/07 00:43:18;;;;;;;203.88;83.40;;;1.00;99.90;;;;;;4974838;28;20034;-77
2021/01/07 00:45:44;;;;;;;188.50;75.82;;;1.00;99.90;;;;;;4973269;28;20062;-78
2021/01/07 00:48:09;;;;;;;167.32;70.47;;;1.00;99.90;;;;;;4973508;28;20027;-77
2021/01/07 00:50:35;;;;;;;169.05;72.30;;;0.90;99.90;;;;;;4973617;28;20019;-76
2021/01/07 00:53:01;;;;;;;148.55;63.78;;;1.00;99.90;;;;;;4974666;28;20026;-76
2021/01/07 00:55:26;;;;;;;158.85;65.93;;;1.00;99.90;;;;;;4974781;28;20041;-76
2021/01/07 00:57:52;;;;;;;138.85;62.65;;;1.00;99.90;;;;;;4974628;28;20130;-77
2021/01/07 01:00:19;;;;;;;140.18;57.70;;;0.90;99.90;;;;;;4973318;28;20031;-77
2021/01/07 01:02:45;;;;;;;134.60;58.58;;;0.90;99.90;;;;;;4974501;28;20027;-76
2021/01/07 01:05:12;;;;;;;131.00;62.13;;;1.00;99.90;;;;;;4973276;28;20019;-77
2021/01/07 01:07:37;;;;;;;135.35;58.50;;;0.90;99.90;;;;;;4989292;28;20034;-77
2021/01/07 01:10:08;;;;;;;143.35;59.80;;;1.00;99.90;;;;;;4974366;28;20101;-78
2021/01/07 01:12:35;;;;;;;134.60;59.97;;;1.00;99.90;;;;;;4974077;28;20030;-77
2021/01/07 01:15:02;;;;;;;146.10;68.30;;;1.00;99.90;;;;;;4973082;28;20052;-77
2021/01/07 01:17:32;;;;;;;152.80;64.63;;;1.00;99.90;;;;;;4973039;28;20054;-77
2021/01/07 01:19:58;;;;;;;154.85;66.07;;;0.90;99.90;;;;;;4974339;28;20029;-77
2021/01/07 01:22:23;;;;;;;145.90;62.10;;;1.00;99.90;;;;;;4973041;28;20023;-78
2021/01/07 01:24:49;;;;;;;133.15;57.83;;;1.00;99.90;;;;;;4973490;28;20031;-77
2021/01/07 01:27:14;;;;;;;136.90;57.85;;;1.00;99.90;;;;;;4988201;28;20484;-78
2021/01/07 01:29:40;;;;;;;125.18;54.50;;;1.00;99.90;;;;;;4989046;28;20030;-77
2021/01/07 01:32:06;;;;;;;136.73;62.00;;;1.00;99.90;;;;;;4972970;28;20543;-77
2021/01/07 01:34:31;;;;;;;131.10;58.72;;;1.00;99.90;;;;;;4972822;28;20046;-78
2021/01/07 01:37:04;;;;;;;122.78;55.40;;;1.00;99.90;;;;;;4972894;28;20365;-78
2021/01/07 01:39:30;;;;;;;;;;;1.00;99.90;;;;;;4973342;28;20027;-78
2021/01/07 01:41:55;;;;;;;137.95;56.13;;;1.00;99.90;;;;;;4972575;28;19906;-78
2021/01/07 01:44:23;;;;;;;134.45;53.45;;;1.00;99.90;;;;;;4972570;28;20058;-78
2021/01/07 01:46:49;;;;;;;127.22;53.47;;;1.00;99.90;;;;;;4972747;28;20416;-78
2021/01/07 01:49:15;;;;;;;129.48;58.70;;;1.00;99.90;;;;;;4972691;28;20022;-78
2021/01/07 01:51:41;;;;;;;118.78;55.33;;;1.00;99.90;;;;;;4972726;28;20035;-77
2021/01/07 01:54:07;;;;;;;129.93;54.30;;;1.00;99.90;;;;;;4972698;28;20088;-77
2021/01/07 01:56:33;;;;;;;121.10;53.10;;;1.00;99.90;;;;;;4972563;28;20035;-77
2021/01/07 01:59:00;;;;;;;111.50;51.60;;;1.00;99.90;;;;;;4972595;28;20023;-77
2021/01/07 02:01:26;;;;;;;107.07;50.75;;;1.00;99.90;;;;;;4988877;28;20026;-78
2021/01/07 02:03:53;;;;;;;118.60;51.13;;;1.00;99.90;;;;;;4972233;28;20388;-77
2021/01/07 02:06:23;;;;;;;114.53;48.05;;;1.00;99.90;;;;;;4988459;28;20046;-77
2021/01/07 02:08:50;;;;;;;110.88;47.47;;;1.00;99.90;;;;;;4973719;28;20369;-77
2021/01/07 02:11:16;;;;;;;100.97;44.40;;;1.00;99.90;;;;;;4973797;28;20035;-77
2021/01/07 02:13:46;;;;;;;90.50;40.45;;;1.00;99.90;;;;;;4972496;28;20488;-77
2021/01/07 02:16:18;;;;;;;104.82;42.85;;;1.00;99.90;;;;;;4972806;28;20384;-77
2021/01/07 02:18:44;;;;;;;95.30;41.45;;;1.00;99.90;;;;;;4973767;28;20532;-77
2021/01/07 02:21:10;;;;;;;86.18;38.67;;;1.00;99.90;;;;;;4971988;28;20088;-77
2021/01/07 02:23:46;;;;;;;98.35;40.97;;;1.00;99.90;;;;;;4973623;28;20023;-77
2021/01/07 02:26:12;;;;;;;94.47;42.60;;;1.00;99.90;;;;;;4973651;28;20082;-77
2021/01/07 02:28:38;;;;;;;93.57;40.90;;;1.00;99.90;;;;;;4988610;28;20018;-77
2021/01/07 02:31:03;;;;;;;94.25;43.53;;;1.00;99.90;;;;;;4972411;28;20054;-79
2021/01/07 02:33:29;;;;;;;99.25;43.90;;;1.00;99.90;;;;;;4972092;28;20536;-77
2021/01/07 02:35:55;;;;;;;97.63;41.63;;;1.00;99.90;;;;;;4972382;28;20074;-78
2021/01/07 02:38:20;;;;;;;95.00;40.42;;;1.00;99.90;;;;;;4975109;28;20026;-77
2021/01/07 02:40:46;;;;;;;92.22;40.20;;;1.00;99.90;;;;;;4975197;28;20493;-77
2021/01/07 02:43:12;;;;;;;92.65;38.10;;;0.90;99.90;;;;;;4991244;28;20030;-77
2021/01/07 02:45:37;;;;;;;79.35;38.90;;;0.80;99.90;;;;;;4976254;28;20026;-77
2021/01/07 02:48:03;;;;;;;90.22;39.17;;;0.80;99.90;;;;;;4976231;28;20504;-77
2021/01/07 02:50:29;;;;;;;86.38;39.33;;;0.80;99.90;;;;;;4976340;28;20023;-78
2021/01/07 02:52:54;;;;;;;92.00;38.85;;;0.80;99.90;;;;;;4976060;28;20464;-77
2021/01/07 02:55:20;;;;;;;93.18;39.63;;;0.80;99.90;;;;;;4991658;28;20058;-77
2021/01/07 02:57:46;;;;;;;92.95;38.05;;;0.80;99.90;;;;;;4975134;28;20031;-77
2021/01/07 03:00:12;;;;;;;91.18;39.40;;;0.80;99.90;;;;;;4991427;28;20022;-77
2021/01/07 03:02:37;;;;;;;91.35;39.25;;;0.80;99.90;;;;;;4975437;28;20097;-77
2021/01/07 03:05:03;;;;;;;85.53;38.67;;;0.80;99.90;;;;;;4991650;28;20023;-78
2021/01/07 03:07:29;;;;;;;88.00;38.53;;;0.80;99.90;;;;;;4975298;28;20496;-77
2021/01/07 03:09:55;;;;;;;83.47;37.30;;;0.80;99.90;;;;;;4975452;28;20035;-78
2021/01/07 03:12:20;;;;;;;81.72;37.97;;;0.80;99.90;;;;;;4976612;28;20094;-77
2021/01/07 03:14:46;;;;;;;89.55;38.55;;;0.80;99.90;;;;;;4975190;28;20037;-77
2021/01/07 03:17:13;;;;;;;86.15;35.42;;;0.70;99.90;;;;;;4991500;28;20042;-77
2021/01/07 03:19:39;;;;;;;86.93;37.20;;;0.70;99.90;;;;;;4975162;28;20396;-77
2021/01/07 03:22:05;;;;;;;83.45;38.42;;;0.70;99.90;;;;;;4976115;28;20018;-78
2021/01/07 03:24:32;;;;;;;84.63;36.00;;;0.70;99.90;;;;;;4975097;28;20122;-77
2021/01/07 03:26:58;;;;;;;90.30;36.85;;;0.70;99.90;;;;;;4974951;28;20038;-77
2021/01/07 03:29:25;;;;;;;98.20;42.08;;;0.80;99.90;;;;;;4974758;28;20023;-78
2021/01/07 03:31:51;;;;;;;88.78;34.92;;;0.80;99.90;;;;;;4974464;28;20081;-78
2021/01/07 03:34:17;;;;;;;77.22;37.05;;;0.80;99.90;;;;;;4976071;28;20025;-78
2021/01/07 03:36:43;;;;;;;83.28;36.35;;;0.70;99.90;;;;;;4991071;28;20114;-78
2021/01/07 03:39:08;;;;;;;82.28;37.05;;;0.70;99.90;;;;;;4974818;28;20027;-78
2021/01/07 03:41:34;;;;;;;84.22;36.13;;;0.70;99.90;;;;;;4974865;28;20519;-78
2021/01/07 03:44:00;;;;;;;84.63;38.72;;;0.70;99.90;;;;;;4975942;28;20031;-78
2021/01/07 03:46:25;;;;;;;86.13;36.88;;;0.70;99.90;;;;;;4974802;28;20033;-78
2021/01/07 03:48:51;;;;;;;79.40;36.08;;;0.70;99.90;;;;;;4975301;28;20037;-78
2021/01/07 03:51:17;;;;;;;92.03;38.75;;;0.60;99.90;;;;;;4973890;28;20026;-78
2021/01/07 03:53:42;;;;;;;83.70;37.90;;;0.60;99.90;;;;;;4975825;28;20034;-78
2021/01/07 03:56:08;;;;;;;89.35;36.45;;;0.60;99.90;;;;;;4974543;28;20030;-78
2021/01/07 03:58:34;;;;;;;87.30;37.83;;;0.60;99.90;;;;;;4975681;28;20105;-78
2021/01/07 04:01:02;;;;;;;81.38;35.45;;;0.70;99.90;;;;;;4975676;28;20074;-78
2021/01/07 04:03:27;;;;;;;81.85;36.67;;;0.70;99.90;;;;;;4990617;28;20041;-78
2021/01/07 04:05:53;;;;;;;87.20;38.10;;;0.70;99.90;;;;;;4975538;28;20492;-78
2021/01/07 04:08:18;;;;;;;92.28;40.20;;;0.70;99.90;;;;;;4974175;28;20038;-78
2021/01/07 04:10:44;;;;;;;82.65;36.40;;;0.70;99.90;;;;;;4990365;28;20480;-78
2021/01/07 04:13:10;;;;;;;86.60;37.83;;;0.70;99.90;;;;;;4989814;28;20031;-77
2021/01/07 04:15:35;;;;;;;81.93;37.85;;;0.70;99.90;;;;;;4990357;28;20019;-78
2021/01/07 04:18:01;;;;;;;86.32;36.22;;;0.70;99.90;;;;;;4990253;28;20073;-78
2021/01/07 04:20:27;;;;;;;92.57;39.03;;;0.70;99.90;;;;;;4990005;28;20077;-78
2021/01/07 04:22:52;;;;;;;80.55;37.30;;;0.70;99.90;;;;;;4989506;28;20031;-77
2021/01/07 04:25:18;;;;;;;83.43;37.63;;;0.70;99.90;;;;;;4974036;28;20488;-77
2021/01/07 04:27:43;;;;;;;80.70;36.63;;;0.60;99.90;;;;;;4975068;28;20484;-78
2021/01/07 04:30:10;;;;;;;100.85;42.60;;;0.70;99.90;;;;;;4975192;28;20019;-78
2021/01/07 04:32:35;;;;;;;94.55;36.45;;;0.70;99.90;;;;;;4975112;28;20105;-77
2021/01/07 04:35:02;;;;;;;90.97;37.67;;;0.70;99.90;;;;;;4984775;28;20113;-77
2021/01/07 04:37:28;;;;;;;92.22;37.20;;;0.70;99.90;;;;;;4993185;28;20369;-78
2021/01/07 04:39:53;;;;;;;86.70;37.63;;;0.70;99.90;;;;;;4993083;28;20110;-78
2021/01/07 04:42:19;;;;;;;80.97;37.53;;;0.70;99.90;;;;;;4994326;28;20054;-78
2021/01/07 04:44:45;;;;;;;85.57;38.50;;;0.70;99.90;;;;;;4992953;28;20063;-78
2021/01/07 04:47:11;;;;;;;83.28;33.80;;;0.60;99.90;;;;;;4992975;28;20081;-78
2021/01/07 04:49:38;;;;;;;88.40;35.85;;;0.70;99.90;;;;;;4987092;28;20034;-78
2021/01/07 04:52:04;;;;;;;82.25;35.78;;;0.60;99.90;;;;;;4973564;28;20373;-78
2021/01/07 04:54:29;;;;;;;84.32;37.30;;;0.60;99.90;;;;;;4995231;28;20037;-77
2021/01/07 04:56:55;;;;;;;78.50;33.72;;;0.60;99.90;;;;;;4994022;28;20030;-77
2021/01/07 04:59:21;;;;;;;81.70;35.67;;;0.60;99.90;;;;;;4992594;28;20116;-77
2021/01/07 05:01:47;;;;;;;81.35;37.83;;;0.60;99.90;;;;;;4993715;28;20023;-77
2021/01/07 05:04:15;;;;;;;89.13;37.88;;;0.60;99.90;;;;;;4993906;28;20034;-78
2021/01/07 05:06:41;;;;;;;84.13;36.80;;;0.60;99.90;;;;;;4993857;28;20041;-77
2021/01/07 05:09:08;;;;;;;83.93;35.88;;;0.60;99.90;;;;;;4983508;28;20027;-77
2021/01/07 05:11:34;;;;;;;83.03;39.70;;;0.60;99.90;;;;;;4973264;28;20037;-77
2021/01/07 05:14:08;;;;;;;91.07;36.03;;;0.50;99.90;;;;;;4973057;28;20026;-77
2021/01/07 05:16:34;;;;;;;91.30;39.45;;;0.60;99.90;;;;;;4972725;28;20027;-77
2021/01/07 05:19:07;;;;;;;87.85;40.42;;;0.60;99.90;;;;;;4972813;28;20031;-77
2021/01/07 05:21:34;;;;;;;;;;;0.60;99.90;;;;;;4988725;28;20035;-77
2021/01/07 05:24:01;;;;;;;83.30;38.22;;;0.60;99.90;;;;;;4973085;28;19906;-77
2021/01/07 05:26:27;;;;;;;82.97;38.28;;;0.60;99.90;;;;;;4972975;28;20118;-77
2021/01/07 05:28:55;;;;;;;97.57;40.05;;;0.60;99.90;;;;;;4988790;28;20023;-78
2021/01/07 05:31:26;;;;;;;88.00;38.35;;;0.50;99.90;;;;;;4973001;28;20027;-77
2021/01/07 05:33:52;;;;;;;84.32;37.75;;;0.50;99.90;;;;;;4972842;28;20106;-77
2021/01/07 05:36:25;;;;;;;80.47;39.13;;;0.50;99.90;;;;;;4972879;28;20074;-78
2021/01/07 05:38:54;;;;;;;87.65;40.63;;;0.50;99.90;;;;;;4974052;28;20401;-77
2021/01/07 05:41:22;;;;;;;93.70;40.97;;;0.50;99.90;;;;;;4972868;28;20082;-78
2021/01/07 05:44:05;;;;;;;95.25;38.58;;;0.50;99.90;;;;;;4974106;28;20027;-78
2021/01/07 05:46:32;;;;;;;77.63;36.47;;;0.50;99.90;;;;;;4973676;28;20050;-77
2021/01/07 05:48:58;;;;;;;87.85;37.40;;;0.40;99.90;;;;;;4972442;28;20027;-77
2021/01/07 05:51:25;;;;;;;98.85;41.63;;;0.50;99.90;;;;;;4974057;28;20531;-78
2021/01/07 05:53:53;;;;;;;85.90;37.65;;;0.40;99.90;;;;;;4972682;28;20599;-77
2021/01/07 05:56:20;;;;;;;87.95;36.85;;;0.40;99.90;;;;;;4973774;28;20026;-78
2021/01/07 05:58:48;;;;;;;82.50;38.00;;;0.40;99.90;;;;;;4974138;28;20045;-77
2021/01/07 06:01:18;;;;;;;84.57;39.08;;;0.40;99.90;;;;;;4992024;28;20026;-77
2021/01/07 06:03:52;;;;;;;87.97;35.25;;;0.40;99.90;;;;;;4992406;28;20376;-77
2021/01/07 06:06:19;;;;;;;91.88;36.38;;;0.40;99.90;;;;;;4991963;28;20419;-77
2021/01/07 06:08:54;;;;;;;86.13;37.22;;;0.40;99.90;;;;;;4993076;28;20030;-77
2021/01/07 06:11:22;;;;;;;75.15;35.33;;;0.40;99.90;;;;;;4993281;28;20061;-77
2021/01/07 06:13:49;;;;;;;79.85;34.78;;;0.40;99.90;;;;;;4994564;28;20481;-77
2021/01/07 06:16:20;;;;;;;82.70;34.10;;;0.40;99.90;;;;;;4997081;28;20041;-78
2021/01/07 06:18:46;;;;;;;72.47;34.30;;;0.40;99.90;;;;;;4984173;28;20069;-77
2021/01/07 06:21:12;;;;;;;79.60;31.45;;;0.30;99.90;;;;;;4976240;28;20637;-78
2021/01/07 06:23:47;;;;;;;78.55;37.10;;;0.30;99.90;;;;;;4976154;28;20019;-77
2021/01/07 06:26:20;;;;;;;93.57;39.60;;;0.30;99.90;;;;;;4977349;28;20035;-78
2021/01/07 06:28:49;;;;;;;;;;;0.30;99.90;;;;;;4976547;28;20023;-77
2021/01/07 06:31:15;;;;;;;164.50;71.32;;;0.20;99.90;;;;;;4976057;28;19910;-78
2021/01/07 06:33:43;;;;;;;203.90;89.72;;;0.20;99.90;;;;;;4991547;28;20555;-77
2021/01/07 06:36:09;;;;;;;102.78;39.88;;;0.20;99.90;;;;;;4975993;28;20110;-78
2021/01/07 06:38:35;;;;;;;108.68;42.75;;;0.10;99.90;;;;;;4975753;28;20019;-76
2021/01/07 06:41:02;;;;;;;225.32;91.85;;;0.10;99.90;;;;;;4991587;28;20023;-77
2021/01/07 06:43:28;;;;;;;160.70;58.90;;;0.10;99.90;;;;;;4975868;28;20034;-77
2021/01/07 06:45:56;;;;;;;111.05;41.25;;;0.10;99.90;;;;;;4991899;28;20502;-77
2021/01/07 06:48:25;;;;;;;108.93;42.28;;;0.00;99.90;;;;;;4973389;28;20026;-77
2021/01/07 06:50:55;;;;;;;124.18;39.05;;;0.00;99.90;;;;;;4976412;28;20027;-77
2021/01/07 06:53:21;;;;;;;148.85;51.55;;;0.10;99.90;;;;;;4976916;28;20122;-77
2021/01/07 06:56:10;;;;;;;117.82;46.83;;;0.00;99.90;;;;;;4976549;28;20027;-77
2021/01/07 06:58:42;;;;;;;140.73;50.97;;;0.00;99.90;;;;;;4972750;28;20086;-78
2021/01/07 07:01:14;;;;;;;98.65;32.20;;;0.00;99.90;;;;;;4976963;28;20420;-78
2021/01/07 07:03:51;;;;;;;87.82;31.48;;;0.00;99.90;;;;;;4976583;28;20031;-78
2021/01/07 07:06:18;;;;;;;77.07;29.33;;;-0.10;99.90;;;;;;4991509;28;20046;-78
2021/01/07 07:08:45;;;;;;;133.43;47.78;;;-0.10;99.90;;;;;;4990482;28;20037;-78
2021/01/07 07:11:14;;;;;;;107.72;42.47;;;0.00;99.90;;;;;;4984195;28;20068;-78
2021/01/07 07:13:42;;;;;;;82.38;34.50;;;0.00;99.90;;;;;;4993116;28;20445;-77
2021/01/07 07:16:09;;;;;;;102.95;37.08;;;0.00;99.90;;;;;;4963136;28;20058;-77
2021/01/07 07:18:35;;;;;;;89.90;33.38;;;0.00;99.90;;;;;;4972954;28;20548;-76
2021/01/07 07:21:33;;;;;;;81.60;30.25;;;0.00;99.90;;;;;;4974763;28;20045;-78
2021/01/07 07:24:08;;;;;;;75.65;27.02;;;0.10;99.90;;;;;;4963443;28;20444;-78
2021/01/07 07:26:41;;;;;;;183.38;60.58;;;0.10;99.90;;;;;;4995552;28;20038;-77
2021/01/07 07:29:09;;;;;;;74.90;29.63;;;0.00;99.90;;;;;;4988781;28;20111;-77
2021/01/07 07:31:46;;;;;;;69.88;31.02;;;0.10;99.90;;;;;;4975289;28;20023;-77
2021/01/07 07:34:14;;;;;;;70.80;25.27;;;0.10;99.90;;;;;;4978537;28;20023;-77
2021/01/07 07:36:41;;;;;;;56.03;21.13;;;0.10;99.90;;;;;;4981094;28;20023;-78
2021/01/07 07:39:08;;;;;;;109.57;40.05;;;0.10;99.90;;;;;;5009894;28;20027;-78
2021/01/07 07:41:42;;;;;;;87.93;30.35;;;0.10;99.90;;;;;;4991546;28;20041;-78
2021/01/07 07:44:08;;;;;;;91.07;33.22;;;0.00;99.90;;;;;;4977371;28;20480;-77
2021/01/07 07:46:36;;;;;;;43.55;18.98;;;0.00;99.90;;;;;;4975814;28;20043;-78
2021/01/07 07:49:03;;;;;;;87.10;31.98;;;0.00;99.90;;;;;;4974494;28;20030;-77
2021/01/07 07:51:29;;;;;;;63.35;21.63;;;0.00;99.90;;;;;;4976706;28;20065;-78
2021/01/07 07:54:02;;;;;;;119.60;42.30;;;0.10;99.90;;;;;;4983817;28;20026;-77
2021/01/07 07:56:28;;;;;;;39.67;16.52;;;0.00;99.90;;;;;;4981386;28;20088;-77
2021/01/07 07:59:12;;;;;;;56.33;21.67;;;0.00;99.90;;;;;;4998110;28;20525;-76
2021/01/07 08:01:43;;;;;;;102.80;35.70;;;0.10;99.90;;;;;;4980746;28;20023;-77
2021/01/07 08:04:17;;;;;;;29.42;12.55;;;0.10;99.90;;;;;;4979158;28;20073;-76
2021/01/07 08:06:44;;;;;;;39.20;15.57;;;0.10;99.90;;;;;;4986748;28;20045;-76
2021/01/07 08:09:13;;;;;;;125.97;40.58;;;0.00;99.90;;;;;;4989221;28;20380;-77
2021/01/07 08:11:48;;;;;;;74.93;25.88;;;0.10;99.90;;;;;;4977020;28;20018;-77
2021/01/07 08:14:28;;;;;;;23.92;12.63;;;0.10;99.90;;;;;;4976295;28;20094;-76
2021/01/07 08:16:58;;;;;;;32.20;13.38;;;0.10;99.90;;;;;;4973840;28;20169;-76
2021/01/07 08:19:30;;;;;;;22.30;10.68;;;0.00;99.90;;;;;;4975129;28;20027;-76
2021/01/07 08:21:55;;;;;;;57.72;21.25;;;0.10;99.90;;;;;;4973942;28;20023;-76
2021/01/07 08:24:22;;;;;;;64.82;23.88;;;0.10;99.90;;;;;;4973985;28;20390;-76
2021/01/07 08:26:54;;;;;;;40.03;16.02;;;0.10;99.90;;;;;;4972965;28;20097;-77
2021/01/07 08:29:21;;;;;;;63.60;23.27;;;0.10;99.90;;;;;;4974822;28;20018;-76
2021/01/07 08:31:49;;;;;;;56.65;23.80;;;0.10;99.90;;;;;;4974884;28;20027;-76
2021/01/07 08:34:19;;;;;;;84.85;28.77;;;0.10;99.90;;;;;;4972544;28;20030;-77
2021/01/07 08:36:45;;;;;;;43.65;17.88;;;0.10;99.90;;;;;;4972178;28;20041;-76
2021/01/07 08:39:15;;;;;;;27.83;13.82;;;0.10;99.90;;;;;;4971584;28;20078;-76
2021/01/07 08:41:44;;;;;;;52.22;19.33;;;0.20;99.90;;;;;;4970983;28;20023;-76
2021/01/07 08:44:10;;;;;;;28.02;13.27;;;0.20;99.90;;;;;;4969916;28;20033;-77
2021/01/07 08:46:41;;;;;;;38.42;19.60;;;0.20;99.90;;;;;;4971978;28;20037;-77
2021/01/07 08:49:16;;;;;;;43.97;19.20;;;0.30;99.90;;;;;;4972374;28;20030;-76
2021/01/07 08:51:46;;;;;;;80.68;30.38;;;0.20;99.90;;;;;;4974361;28;20082;-77
2021/01/07 08:54:18;;;;;;;36.38;15.45;;;0.20;99.90;;;;;;4973377;28;20042;-76
2021/01/07 08:56:45;;;;;;;35.03;15.55;;;0.20;99.90;;;;;;4989315;28;20022;-77
2021/01/07 08:59:25;;;;;;;55.20;18.58;;;0.20;99.90;;;;;;4974641;28;20058;-77
2021/01/07 09:01:56;;;;;;;48.50;19.20;;;0.10;99.90;;;;;;4973387;28;20081;-77
2021/01/07 09:04:38;;;;;;;59.80;25.58;;;0.30;99.90;;;;;;4973345;28;20074;-77
2021/01/07 09:07:08;;;;;;;35.60;16.77;;;0.30;99.90;;;;;;4974105;28;20439;-78
2021/01/07 09:09:45;;;;;;;68.00;24.75;;;0.40;99.90;;;;;;4973190;28;20042;-79
2021/01/07 09:12:15;;;;;;;17.77;10.63;;;0.40;99.90;;;;;;4973259;28;20118;-78
2021/01/07 09:15:06;;;;;;;28.02;13.43;;;0.30;99.90;;;;;;4972908;28;20065;-79
2021/01/07 09:17:48;;;;;;;24.42;13.80;;;0.30;99.90;;;;;;4972875;28;20105;-79
2021/01/07 09:20:15;;;;;;;27.67;15.15;;;0.30;99.90;;;;;;4969656;28;20026;-79
2021/01/07 09:22:41;;;;;;;24.60;13.95;;;0.20;99.90;;;;;;4972440;28;20038;-79
2021/01/07 09:25:09;;;;;;;39.72;18.83;;;0.20;99.90;;;;;;4971978;28;20432;-79
2021/01/07 09:27:35;;;;;;;36.53;14.85;;;0.10;99.90;;;;;;4972020;28;20034;-78
2021/01/07 09:30:00;;;;;;;51.97;21.67;;;0.20;99.90;;;;;;4971477;28;20571;-79
2021/01/07 09:32:26;;;;;;;45.55;20.10;;;0.30;99.90;;;;;;4971271;28;20022;-79
2021/01/07 09:34:52;;;;;;;54.00;23.13;;;0.30;99.90;;;;;;4970885;28;20391;-79
2021/01/07 09:37:22;;;;;;;68.45;32.70;;;0.30;99.90;;;;;;4970483;28;20074;-79
2021/01/07 09:39:50;;;;;;;55.58;26.52;;;0.40;99.90;;;;;;4970984;28;20441;-79
2021/01/07 09:42:21;;;;;;;66.85;33.65;;;0.40;99.90;;;;;;4971360;28;20473;-79
2021/01/07 09:44:48;;;;;;;43.28;23.38;;;0.40;99.90;;;;;;4972310;28;20019;-79
2021/01/07 09:47:15;;;;;;;54.53;28.13;;;0.30;99.90;;;;;;4972791;28;20042;-79
2021/01/07 09:49:40;;;;;;;45.53;23.77;;;0.30;99.90;;;;;;4976333;28;20023;-79
2021/01/07 09:52:06;;;;;;;64.03;26.52;;;0.30;99.90;;;;;;4978064;28;20357;-79
2021/01/07 09:54:33;;;;;;;44.63;20.13;;;0.20;99.90;;;;;;4976781;28;20391;-79
2021/01/07 09:57:00;;;;;;;41.50;22.23;;;0.20;99.90;;;;;;4978286;28;20027;-80
2021/01/07 09:59:31;;;;;;;57.63;29.67;;;0.20;99.90;;;;;;4976692;28;20031;-79
2021/01/07 10:02:08;;;;;;;73.53;38.78;;;0.10;99.90;;;;;;4976632;28;20030;-79
2021/01/07 10:04:35;;;;;;;80.60;40.78;;;0.10;99.90;;;;;;4977479;28;20061;-79
2021/01/07 10:07:01;;;;;;;35.35;21.98;;;0.10;99.90;;;;;;4976485;28;20560;-79
2021/01/07 10:09:27;;;;;;;37.65;18.30;;;0.00;99.90;;;;;;4975058;28;20030;-80
2021/01/07 10:11:57;;;;;;;42.05;21.40;;;0.00;99.90;;;;;;4976468;28;20366;-80
2021/01/07 10:14:24;;;;;;;85.45;40.33;;;0.10;99.90;;;;;;4976372;28;20077;-79
2021/01/07 10:17:01;;;;;;;72.43;30.55;;;0.10;99.90;;;;;;4975907;28;20069;-79
2021/01/07 10:19:29;;;;;;;51.58;24.17;;;0.10;99.90;;;;;;4975832;28;20080;-79
2021/01/07 10:22:00;;;;;;;54.05;22.90;;;0.10;99.90;;;;;;4976317;28;20023;-79
2021/01/07 10:24:27;;;;;;;57.40;26.50;;;0.10;99.90;;;;;;4976307;28;20085;-79
2021/01/07 10:26:56;;;;;;;49.30;21.42;;;0.00;99.90;;;;;;4976123;28;20046;-79
2021/01/07 10:29:22;;;;;;;50.08;23.80;;;0.00;99.90;;;;;;4977582;28;20026;-79
2021/01/07 10:31:48;;;;;;;101.40;40.70;;;0.00;99.90;;;;;;4977424;28;20481;-79
2021/01/07 10:34:15;;;;;;;90.10;34.92;;;0.00;99.90;;;;;;4975493;28;20046;-79
2021/01/07 10:36:42;;;;;;;46.28;20.55;;;-0.10;99.90;;;;;;4976011;28;20102;-79
2021/01/07 10:39:10;;;;;;;40.40;19.45;;;0.00;99.90;;;;;;4975778;28;20109;-79
2021/01/07 10:41:42;;;;;;;89.38;36.08;;;-0.10;99.90;;;;;;4955848;28;20547;-79
2021/01/07 10:44:08;;;;;;;40.88;18.83;;;-0.10;99.90;;;;;;4956566;28;20074;-79
2021/01/07 10:46:39;;;;;;;84.97;29.58;;;-0.10;99.90;;;;;;4957766;29;20038;-79
2021/01/07 10:49:06;;;;;;;53.08;23.02;;;-0.20;99.90;;;;;;4955963;28;20035;-79
2021/01/07 10:51:45;;;;;;;82.40;29.02;;;-0.20;99.90;;;;;;4956498;29;20118;-79
2021/01/07 10:54:36;;;;;;;51.50;19.75;;;-0.10;99.90;;;;;;4972452;28;20473;-79
2021/01/07 10:57:30;;;;;;;37.78;16.08;;;-0.20;99.90;;;;;;4957701;29;20031;-79
2021/01/07 11:00:23;;;;;;;57.65;21.33;;;-0.10;99.90;;;;;;4955867;28;20030;-79
2021/01/07 11:02:55;;;;;;;57.47;25.80;;;-0.10;99.90;;;;;;4985264;28;20042;-79
2021/01/07 11:05:24;;;;;;;37.97;18.20;;;-0.10;99.90;;;;;;4976173;28;20034;-79
2021/01/07 11:08:14;;;;;;;41.28;20.50;;;-0.10;99.90;;;;;;4982743;28;20129;-79
2021/01/07 11:10:44;;;;;;;65.68;28.48;;;0.00;99.90;;;;;;4994864;28;20031;-79
2021/01/07 11:13:10;;;;;;;38.58;21.80;;;0.10;99.90;;;;;;4994821;28;20022;-79
2021/01/07 11:15:40;;;;;;;37.85;19.67;;;0.10;99.90;;;;;;4994798;28;20019;-79
2021/01/07 11:18:12;;;;;;;45.25;22.23;;;0.00;99.90;;;;;;4994666;28;20037;-79
2021/01/07 11:20:47;;;;;;;35.78;16.58;;;0.00;99.90;;;;;;4995458;28;20052;-79
2021/01/07 11:23:13;;;;;;;44.17;19.73;;;0.00;99.90;;;;;;4996047;28;20022;-79
2021/01/07 11:25:38;;;;;;;38.20;17.73;;;0.10;99.90;;;;;;4994575;28;20018;-79
2021/01/07 11:28:05;;;;;;;30.35;13.02;;;0.00;99.90;;;;;;4986203;28;20037;-79
2021/01/07 11:30:31;;;;;;;23.33;12.48;;;0.00;99.90;;;;;;4975148;28;20027;-79
2021/01/07 11:33:00;;;;;;;30.77;13.90;;;0.00;99.90;;;;;;4974993;28;20506;-79
2021/01/07 11:35:25;;;;;;;34.40;15.88;;;0.00;99.90;;;;;;4974515;28;20042;-79
2021/01/07 11:37:53;;;;;;;28.13;13.82;;;0.00;99.90;;;;;;4974864;28;20027;-79
2021/01/07 11:40:33;;;;;;;39.67;15.95;;;0.00;99.90;;;;;;4974863;28;20488;-79
2021/01/07 11:43:26;;;;;;;31.95;15.45;;;-0.10;99.90;;;;;;4974791;28;20022;-79
2021/01/07 11:45:59;;;;;;;37.90;18.15;;;0.00;99.90;;;;;;4974837;28;20138;-79
2021/01/07 11:48:25;;;;;;;;;;;0.00;99.90;;;;;;4974585;28;20034;-79
2021/01/07 11:51:04;;;;;;;30.23;13.77;;;0.20;99.90;;;;;;4990549;28;20102;-80
2021/01/07 11:53:30;;;;;;;32.65;14.13;;;0.20;99.90;;;;;;4974631;28;20027;-79
2021/01/07 11:55:57;;;;;;;31.77;16.02;;;0.20;99.90;;;;;;4974625;28;20022;-79
2021/01/07 11:58:24;;;;;;;29.38;15.07;;;0.30;99.90;;;;;;4974163;28;20058;-79
2021/01/07 12:00:59;;;;;;;26.80;12.43;;;0.30;99.90;;;;;;4974169;28;20077;-79
2021/01/07 12:03:33;;;;;;;31.85;15.00;;;0.20;99.90;;;;;;4973826;28;20534;-79
2021/01/07 12:06:07;;;;;;;24.45;12.45;;;0.20;99.90;;;;;;4974334;28;20026;-79
2021/01/07 12:08:58;;;;;;;31.30;12.68;;;0.10;99.90;;;;;;4975562;28;20042;-79
2021/01/07 12:11:36;;;;;;;21.48;11.43;;;0.00;99.90;;;;;;4974850;28;20065;-79
2021/01/07 12:14:10;;;;;;;42.30;17.00;;;0.00;99.90;;;;;;4974248;28;20026;-79
2021/01/07 12:16:50;;;;;;;33.35;13.90;;;0.10;99.90;;;;;;4974261;28;20019;-79
2021/01/07 12:19:16;;;;;;;33.85;15.50;;;0.00;99.90;;;;;;4974521;28;20046;-79
2021/01/07 12:21:42;;;;;;;28.70;13.77;;;0.00;99.90;;;;;;4975432;28;20050;-79
2021/01/07 12:24:11;;;;;;;23.35;11.23;;;0.00;99.90;;;;;;4975283;28;20095;-79
2021/01/07 12:26:36;;;;;;;24.50;13.40;;;-0.10;99.90;;;;;;4974028;28;20061;-79
2021/01/07 12:29:02;;;;;;;28.13;13.73;;;0.00;99.90;;;;;;4975123;28;20469;-79
2021/01/07 12:31:31;;;;;;;28.42;13.88;;;0.00;99.90;;;;;;4974010;28;20030;-79
2021/01/07 12:34:15;;;;;;;26.92;12.50;;;0.00;99.90;;;;;;4973076;28;20023;-79
2021/01/07 12:36:58;;;;;;;32.28;15.88;;;-0.10;99.90;;;;;;4973519;28;20058;-79
2021/01/07 12:39:47;;;;;;;36.63;15.77;;;-0.10;99.90;;;;;;4973797;28;20058;-79
2021/01/07 12:42:16;;;;;;;41.03;19.45;;;-0.10;99.90;;;;;;4971045;28;20031;-80
2021/01/07 12:44:46;;;;;;;41.63;21.45;;;-0.10;99.90;;;;;;4973711;28;20038;-79